sensor_id;sensor_type;location;lat;lon;timestamp;temperature;humidity
22813;DHT22;11573;51.334;3.244;2023-07-31T00:00:12;17.10;99.90
22813;DHT22;11573;51.334;3.244;2023-07-31T00:02:39;17.10;99.90
22813;DHT22;11573;51.334;3.244;2023-07-31T00:05:08;17.10;99.90
22813;DHT22;11573;51.334;3.244;2023-07-31T00:07:36;17.10;99.90
22813;DHT22;11573;51.334;3.244;2023-07-31T00:10:03;17.10;99.90
22813;DHT22;11573;51.334;3.244;2023-07-31T00:12:30;17.10;99.90
22813;DHT22;11573;51.334;3.244;2023-07-31T00:14:57;17.10;99.90
22813;DHT22;11573;51.334;3.244;2023-07-31T00:17:24;17.10;99.90
22813;DHT22;11573;51.334;3.244;2023-07-31T00:19:51;17.10;99.90
22813;DHT22;11573;51.334;3.244;2023-07-31T00:22:18;17.10;99.90
22813;DHT22;11573;51.334;3.244;2023-07-31T00:24:45;17.10;99.90
22813;DHT22;11573;51.334;3.244;2023-07-31T00:27:12;17.10;99.90
22813;DHT22;11573;51.334;3.244;2023-07-31T00:29:39;17.10;99.90
22813;DHT22;11573;51.334;3.244;2023-07-31T00:32:06;17.00;99.90
22813;DHT22;11573;51.334;3.244;2023-07-31T00:34:33;17.00;99.90
22813;DHT22;11573;51.334;3.244;2023-07-31T00:37:02;17.00;99.90
22813;DHT22;11573;51.334;3.244;2023-07-31T00:39:30;17.00;99.90
22813;DHT22;11573;51.334;3.244;2023-07-31T00:41:59;17.00;99.90
22813;DHT22;11573;51.334;3.244;2023-07-31T00:44:26;17.00;99.90
22813;DHT22;11573;51.334;3.244;2023-07-31T00:46:53;17.00;99.90
22813;DHT22;11573;51.334;3.244;2023-07-31T00:49:21;16.90;99.90
22813;DHT22;11573;51.334;3.244;2023-07-31T00:51:49;17.00;99.90
22813;DHT22;11573;51.334;3.244;2023-07-31T00:54:17;17.00;99.90
22813;DHT22;11573;51.334;3.244;2023-07-31T00:56:45;17.00;99.90
22813;DHT22;11573;51.334;3.244;2023-07-31T00:59:15;17.00;99.90
22813;DHT22;11573;51.334;3.244;2023-07-31T01:01:42;17.00;99.90
22813;DHT22;11573;51.334;3.244;2023-07-31T01:04:09;17.00;99.90
22813;DHT22;11573;51.334;3.244;2023-07-31T01:06:48;17.00;99.90
22813;DHT22;11573;51.334;3.244;2023-07-31T01:09:40;17.00;99.90
22813;DHT22;11573;51.334;3.244;2023-07-31T01:12:13;17.00;99.90
22813;DHT22;11573;51.334;3.244;2023-07-31T01:14:44;17.00;99.90
22813;DHT22;11573;51.334;3.244;2023-07-31T01:17:17;16.90;99.90
22813;DHT22;11573;51.334;3.244;2023-07-31T01:19:44;17.00;99.90
22813;DHT22;11573;51.334;3.244;2023-07-31T01:22:30;17.00;99.90
22813;DHT22;11573;51.334;3.244;2023-07-31T01:28:11;16.90;99.90
22813;DHT22;11573;51.334;3.244;2023-07-31T01:30:45;16.90;99.90
22813;DHT22;11573;51.334;3.244;2023-07-31T01:33:18;16.90;99.90
22813;DHT22;11573;51.334;3.244;2023-07-31T01:35:46;16.90;99.90
22813;DHT22;11573;51.334;3.244;2023-07-31T01:38:14;16.90;99.90
22813;DHT22;11573;51.334;3.244;2023-07-31T01:40:42;16.90;99.90
22813;DHT22;11573;51.334;3.244;2023-07-31T01:43:09;16.90;99.90
22813;DHT22;11573;51.334;3.244;2023-07-31T01:45:36;16.90;99.90
22813;DHT22;11573;51.334;3.244;2023-07-31T01:48:03;16.90;99.90
22813;DHT22;11573;51.334;3.244;2023-07-31T01:50:30;16.90;99.90
22813;DHT22;11573;51.334;3.244;2023-07-31T01:52:57;16.90;99.90
22813;DHT22;11573;51.334;3.244;2023-07-31T01:55:24;16.90;99.90
22813;DHT22;11573;51.334;3.244;2023-07-31T01:57:51;17.00;99.90
22813;DHT22;11573;51.334;3.244;2023-07-31T02:00:19;17.00;99.90
22813;DHT22;11573;51.334;3.244;2023-07-31T02:02:46;17.00;99.90
22813;DHT22;11573;51.334;3.244;2023-07-31T02:05:13;17.00;99.90
22813;DHT22;11573;51.334;3.244;2023-07-31T02:07:40;17.00;99.90
22813;DHT22;11573;51.334;3.244;2023-07-31T02:10:07;17.00;99.90
22813;DHT22;11573;51.334;3.244;2023-07-31T02:12:35;16.90;99.90
22813;DHT22;11573;51.334;3.244;2023-07-31T02:15:02;16.90;99.90
22813;DHT22;11573;51.334;3.244;2023-07-31T02:17:29;16.80;99.90
22813;DHT22;11573;51.334;3.244;2023-07-31T02:19:56;16.80;99.90
22813;DHT22;11573;51.334;3.244;2023-07-31T02:22:24;16.80;99.90
22813;DHT22;11573;51.334;3.244;2023-07-31T02:24:51;16.70;99.90
22813;DHT22;11573;51.334;3.244;2023-07-31T02:27:18;16.80;99.90
22813;DHT22;11573;51.334;3.244;2023-07-31T02:29:45;16.70;99.90
22813;DHT22;11573;51.334;3.244;2023-07-31T02:32:12;16.70;99.90
22813;DHT22;11573;51.334;3.244;2023-07-31T02:34:40;16.60;99.90
22813;DHT22;11573;51.334;3.244;2023-07-31T02:37:07;16.70;99.90
22813;DHT22;11573;51.334;3.244;2023-07-31T02:39:34;16.60;99.90
22813;DHT22;11573;51.334;3.244;2023-07-31T02:42:01;16.60;99.90
22813;DHT22;11573;51.334;3.244;2023-07-31T02:44:28;16.60;99.90
22813;DHT22;11573;51.334;3.244;2023-07-31T02:46:55;16.60;99.90
22813;DHT22;11573;51.334;3.244;2023-07-31T02:49:22;16.70;99.90
22813;DHT22;11573;51.334;3.244;2023-07-31T02:51:49;16.70;99.90
22813;DHT22;11573;51.334;3.244;2023-07-31T02:54:16;16.70;99.90
22813;DHT22;11573;51.334;3.244;2023-07-31T02:56:43;16.70;99.90
22813;DHT22;11573;51.334;3.244;2023-07-31T02:59:10;16.70;99.90
22813;DHT22;11573;51.334;3.244;2023-07-31T03:01:37;16.70;99.90
22813;DHT22;11573;51.334;3.244;2023-07-31T03:04:05;16.70;99.90
22813;DHT22;11573;51.334;3.244;2023-07-31T03:06:32;16.70;99.90
22813;DHT22;11573;51.334;3.244;2023-07-31T03:08:59;16.60;99.90
22813;DHT22;11573;51.334;3.244;2023-07-31T03:11:27;16.70;99.90
22813;DHT22;11573;51.334;3.244;2023-07-31T03:13:55;16.60;99.90
22813;DHT22;11573;51.334;3.244;2023-07-31T03:16:22;16.60;99.90
22813;DHT22;11573;51.334;3.244;2023-07-31T03:18:49;16.50;99.90
22813;DHT22;11573;51.334;3.244;2023-07-31T03:21:16;16.50;99.90
22813;DHT22;11573;51.334;3.244;2023-07-31T03:23:43;16.50;99.90
22813;DHT22;11573;51.334;3.244;2023-07-31T03:26:10;16.50;99.90
22813;DHT22;11573;51.334;3.244;2023-07-31T03:28:37;16.50;99.90
22813;DHT22;11573;51.334;3.244;2023-07-31T03:31:04;16.40;99.90
22813;DHT22;11573;51.334;3.244;2023-07-31T03:33:32;16.40;99.90
22813;DHT22;11573;51.334;3.244;2023-07-31T03:35:59;16.40;99.90
22813;DHT22;11573;51.334;3.244;2023-07-31T03:38:26;16.40;99.90
22813;DHT22;11573;51.334;3.244;2023-07-31T03:40:53;16.40;99.90
22813;DHT22;11573;51.334;3.244;2023-07-31T03:43:20;16.30;99.90
22813;DHT22;11573;51.334;3.244;2023-07-31T03:45:47;16.30;99.90
22813;DHT22;11573;51.334;3.244;2023-07-31T03:48:14;16.40;99.90
22813;DHT22;11573;51.334;3.244;2023-07-31T03:50:42;16.40;99.90
22813;DHT22;11573;51.334;3.244;2023-07-31T03:53:09;16.40;99.90
22813;DHT22;11573;51.334;3.244;2023-07-31T03:55:36;16.40;99.90
22813;DHT22;11573;51.334;3.244;2023-07-31T03:58:03;16.40;99.90
22813;DHT22;11573;51.334;3.244;2023-07-31T04:00:30;16.40;99.90
22813;DHT22;11573;51.334;3.244;2023-07-31T04:02:57;16.40;99.90
22813;DHT22;11573;51.334;3.244;2023-07-31T04:05:24;16.40;99.90
22813;DHT22;11573;51.334;3.244;2023-07-31T04:07:51;16.40;99.90
22813;DHT22;11573;51.334;3.244;2023-07-31T04:10:18;16.50;99.90
22813;DHT22;11573;51.334;3.244;2023-07-31T04:12:45;16.40;99.90
22813;DHT22;11573;51.334;3.244;2023-07-31T04:15:12;16.50;99.90
22813;DHT22;11573;51.334;3.244;2023-07-31T04:17:39;16.50;99.90
22813;DHT22;11573;51.334;3.244;2023-07-31T04:20:06;16.50;99.90
22813;DHT22;11573;51.334;3.244;2023-07-31T04:22:33;16.50;99.90
22813;DHT22;11573;51.334;3.244;2023-07-31T04:25:00;16.50;99.90
22813;DHT22;11573;51.334;3.244;2023-07-31T04:27:27;16.50;99.90
22813;DHT22;11573;51.334;3.244;2023-07-31T04:29:54;16.50;99.90
22813;DHT22;11573;51.334;3.244;2023-07-31T04:32:21;16.60;99.90
22813;DHT22;11573;51.334;3.244;2023-07-31T04:34:48;16.60;99.90
22813;DHT22;11573;51.334;3.244;2023-07-31T04:37:15;16.60;99.90
22813;DHT22;11573;51.334;3.244;2023-07-31T04:39:42;16.60;99.90
22813;DHT22;11573;51.334;3.244;2023-07-31T04:42:09;16.60;99.90
22813;DHT22;11573;51.334;3.244;2023-07-31T04:44:36;16.50;99.90
22813;DHT22;11573;51.334;3.244;2023-07-31T04:47:03;16.60;99.90
22813;DHT22;11573;51.334;3.244;2023-07-31T04:49:31;16.50;99.90
22813;DHT22;11573;51.334;3.244;2023-07-31T04:51:58;16.50;99.90
22813;DHT22;11573;51.334;3.244;2023-07-31T04:54:25;16.60;99.90
22813;DHT22;11573;51.334;3.244;2023-07-31T04:56:53;16.60;99.90
22813;DHT22;11573;51.334;3.244;2023-07-31T04:59:20;16.60;99.90
22813;DHT22;11573;51.334;3.244;2023-07-31T05:01:47;16.60;99.90
22813;DHT22;11573;51.334;3.244;2023-07-31T05:04:15;16.60;99.90
22813;DHT22;11573;51.334;3.244;2023-07-31T05:06:42;16.60;99.90
22813;DHT22;11573;51.334;3.244;2023-07-31T05:09:09;16.60;99.90
22813;DHT22;11573;51.334;3.244;2023-07-31T05:11:37;16.60;99.90
22813;DHT22;11573;51.334;3.244;2023-07-31T05:14:03;16.60;99.90
22813;DHT22;11573;51.334;3.244;2023-07-31T05:16:30;16.60;99.90
22813;DHT22;11573;51.334;3.244;2023-07-31T05:18:57;16.60;99.90
22813;DHT22;11573;51.334;3.244;2023-07-31T05:21:24;16.60;99.90
22813;DHT22;11573;51.334;3.244;2023-07-31T05:23:51;16.60;99.90
22813;DHT22;11573;51.334;3.244;2023-07-31T05:26:18;16.60;99.90
22813;DHT22;11573;51.334;3.244;2023-07-31T05:28:45;16.60;99.90
22813;DHT22;11573;51.334;3.244;2023-07-31T05:31:12;16.70;99.90
22813;DHT22;11573;51.334;3.244;2023-07-31T05:33:39;16.60;99.90
22813;DHT22;11573;51.334;3.244;2023-07-31T05:36:06;16.70;99.90
22813;DHT22;11573;51.334;3.244;2023-07-31T05:38:33;16.70;99.90
22813;DHT22;11573;51.334;3.244;2023-07-31T05:41:00;16.70;99.90
22813;DHT22;11573;51.334;3.244;2023-07-31T05:43:27;16.70;99.90
22813;DHT22;11573;51.334;3.244;2023-07-31T05:45:54;16.70;99.90
22813;DHT22;11573;51.334;3.244;2023-07-31T05:48:21;16.70;99.90
22813;DHT22;11573;51.334;3.244;2023-07-31T05:50:48;16.70;99.90
22813;DHT22;11573;51.334;3.244;2023-07-31T05:53:15;16.70;99.90
22813;DHT22;11573;51.334;3.244;2023-07-31T05:55:42;16.80;99.90
22813;DHT22;11573;51.334;3.244;2023-07-31T05:58:09;16.80;99.90
22813;DHT22;11573;51.334;3.244;2023-07-31T06:00:36;16.80;99.90
22813;DHT22;11573;51.334;3.244;2023-07-31T06:03:03;16.80;99.90
22813;DHT22;11573;51.334;3.244;2023-07-31T06:05:31;16.80;99.90
22813;DHT22;11573;51.334;3.244;2023-07-31T06:07:58;16.80;99.90
22813;DHT22;11573;51.334;3.244;2023-07-31T06:10:25;16.80;99.90
22813;DHT22;11573;51.334;3.244;2023-07-31T06:12:52;16.80;99.90
22813;DHT22;11573;51.334;3.244;2023-07-31T06:15:19;16.70;99.90
22813;DHT22;11573;51.334;3.244;2023-07-31T06:17:46;16.80;99.90
22813;DHT22;11573;51.334;3.244;2023-07-31T06:20:13;16.80;99.90
22813;DHT22;11573;51.334;3.244;2023-07-31T06:22:40;16.80;99.90
22813;DHT22;11573;51.334;3.244;2023-07-31T06:25:07;16.80;99.90
22813;DHT22;11573;51.334;3.244;2023-07-31T06:27:36;16.90;99.90
22813;DHT22;11573;51.334;3.244;2023-07-31T06:30:04;16.90;99.90
22813;DHT22;11573;51.334;3.244;2023-07-31T06:32:31;16.80;99.90
22813;DHT22;11573;51.334;3.244;2023-07-31T06:34:58;16.80;99.90
22813;DHT22;11573;51.334;3.244;2023-07-31T06:37:25;16.80;99.90
22813;DHT22;11573;51.334;3.244;2023-07-31T06:39:53;16.80;99.90
22813;DHT22;11573;51.334;3.244;2023-07-31T06:42:20;16.80;99.90
22813;DHT22;11573;51.334;3.244;2023-07-31T06:44:47;16.90;99.90
22813;DHT22;11573;51.334;3.244;2023-07-31T06:47:14;16.90;99.90
22813;DHT22;11573;51.334;3.244;2023-07-31T06:49:41;16.90;99.90
22813;DHT22;11573;51.334;3.244;2023-07-31T06:52:08;16.90;99.90
22813;DHT22;11573;51.334;3.244;2023-07-31T06:54:36;16.90;99.90
22813;DHT22;11573;51.334;3.244;2023-07-31T06:57:03;16.80;99.90
22813;DHT22;11573;51.334;3.244;2023-07-31T06:59:30;16.80;99.90
22813;DHT22;11573;51.334;3.244;2023-07-31T07:01:57;16.80;99.90
22813;DHT22;11573;51.334;3.244;2023-07-31T07:04:24;16.90;99.90
22813;DHT22;11573;51.334;3.244;2023-07-31T07:06:51;16.90;99.90
22813;DHT22;11573;51.334;3.244;2023-07-31T07:09:18;17.00;99.90
22813;DHT22;11573;51.334;3.244;2023-07-31T07:11:46;16.90;99.90
22813;DHT22;11573;51.334;3.244;2023-07-31T07:14:13;17.00;99.90
22813;DHT22;11573;51.334;3.244;2023-07-31T07:16:40;17.00;99.90
22813;DHT22;11573;51.334;3.244;2023-07-31T07:19:08;17.00;99.90
22813;DHT22;11573;51.334;3.244;2023-07-31T07:21:35;17.10;99.90
22813;DHT22;11573;51.334;3.244;2023-07-31T07:24:02;17.30;99.90
22813;DHT22;11573;51.334;3.244;2023-07-31T07:26:29;17.30;99.90
22813;DHT22;11573;51.334;3.244;2023-07-31T07:28:56;17.30;99.90
22813;DHT22;11573;51.334;3.244;2023-07-31T07:31:27;17.30;99.90
22813;DHT22;11573;51.334;3.244;2023-07-31T07:33:54;17.20;99.90
22813;DHT22;11573;51.334;3.244;2023-07-31T07:36:22;17.40;99.90
22813;DHT22;11573;51.334;3.244;2023-07-31T07:38:49;17.40;99.90
22813;DHT22;11573;51.334;3.244;2023-07-31T07:41:16;17.50;99.90
22813;DHT22;11573;51.334;3.244;2023-07-31T07:43:43;17.40;99.90
22813;DHT22;11573;51.334;3.244;2023-07-31T07:46:10;17.50;99.90
22813;DHT22;11573;51.334;3.244;2023-07-31T07:48:37;17.50;99.90
22813;DHT22;11573;51.334;3.244;2023-07-31T07:51:04;17.50;99.90
22813;DHT22;11573;51.334;3.244;2023-07-31T07:53:31;17.40;99.90
22813;DHT22;11573;51.334;3.244;2023-07-31T07:55:58;17.40;99.90
22813;DHT22;11573;51.334;3.244;2023-07-31T07:58:25;17.50;99.90
22813;DHT22;11573;51.334;3.244;2023-07-31T08:00:52;17.40;99.90
22813;DHT22;11573;51.334;3.244;2023-07-31T08:03:19;17.50;99.90
22813;DHT22;11573;51.334;3.244;2023-07-31T08:05:46;17.60;99.90
22813;DHT22;11573;51.334;3.244;2023-07-31T08:08:16;17.70;99.90
22813;DHT22;11573;51.334;3.244;2023-07-31T08:10:43;17.60;99.90
22813;DHT22;11573;51.334;3.244;2023-07-31T08:13:11;17.50;99.90
22813;DHT22;11573;51.334;3.244;2023-07-31T08:15:41;17.50;99.90
22813;DHT22;11573;51.334;3.244;2023-07-31T08:18:09;17.70;99.90
22813;DHT22;11573;51.334;3.244;2023-07-31T08:20:36;17.80;99.90
22813;DHT22;11573;51.334;3.244;2023-07-31T08:23:03;17.90;99.90
22813;DHT22;11573;51.334;3.244;2023-07-31T08:25:30;18.10;99.90
22813;DHT22;11573;51.334;3.244;2023-07-31T08:27:57;18.10;99.90
22813;DHT22;11573;51.334;3.244;2023-07-31T08:30:24;18.00;99.90
22813;DHT22;11573;51.334;3.244;2023-07-31T08:32:51;18.00;99.90
22813;DHT22;11573;51.334;3.244;2023-07-31T08:35:18;18.00;99.90
22813;DHT22;11573;51.334;3.244;2023-07-31T08:37:45;18.00;99.90
22813;DHT22;11573;51.334;3.244;2023-07-31T08:40:12;18.00;99.90
22813;DHT22;11573;51.334;3.244;2023-07-31T08:42:45;18.10;99.90
22813;DHT22;11573;51.334;3.244;2023-07-31T08:45:16;18.10;99.90
22813;DHT22;11573;51.334;3.244;2023-07-31T08:47:49;18.10;99.90
22813;DHT22;11573;51.334;3.244;2023-07-31T08:50:18;18.10;99.90
22813;DHT22;11573;51.334;3.244;2023-07-31T08:52:46;18.10;99.90
22813;DHT22;11573;51.334;3.244;2023-07-31T08:55:14;18.30;99.90
22813;DHT22;11573;51.334;3.244;2023-07-31T08:57:42;18.40;99.90
22813;DHT22;11573;51.334;3.244;2023-07-31T09:00:10;18.40;99.90
22813;DHT22;11573;51.334;3.244;2023-07-31T09:05:15;18.30;99.90
22813;DHT22;11573;51.334;3.244;2023-07-31T09:07:44;18.40;99.90
22813;DHT22;11573;51.334;3.244;2023-07-31T09:10:13;18.50;99.90
22813;DHT22;11573;51.334;3.244;2023-07-31T09:12:40;18.50;99.90
22813;DHT22;11573;51.334;3.244;2023-07-31T09:15:08;18.50;99.90
22813;DHT22;11573;51.334;3.244;2023-07-31T09:17:46;18.60;99.90
22813;DHT22;11573;51.334;3.244;2023-07-31T09:20:18;18.70;99.90
22813;DHT22;11573;51.334;3.244;2023-07-31T09:22:46;18.80;99.90
22813;DHT22;11573;51.334;3.244;2023-07-31T09:27:54;18.80;99.90
22813;DHT22;11573;51.334;3.244;2023-07-31T09:30:21;18.80;99.90
22813;DHT22;11573;51.334;3.244;2023-07-31T09:32:49;18.90;99.90
22813;DHT22;11573;51.334;3.244;2023-07-31T09:35:29;18.90;99.90
22813;DHT22;11573;51.334;3.244;2023-07-31T09:38:04;18.80;99.90
22813;DHT22;11573;51.334;3.244;2023-07-31T09:40:37;18.70;99.90
22813;DHT22;11573;51.334;3.244;2023-07-31T09:43:06;18.80;99.90
22813;DHT22;11573;51.334;3.244;2023-07-31T09:45:44;18.70;99.90
22813;DHT22;11573;51.334;3.244;2023-07-31T09:48:16;18.80;99.90
22813;DHT22;11573;51.334;3.244;2023-07-31T09:50:48;19.10;99.90
22813;DHT22;11573;51.334;3.244;2023-07-31T09:53:16;19.10;99.90
22813;DHT22;11573;51.334;3.244;2023-07-31T09:55:44;19.20;99.90
22813;DHT22;11573;51.334;3.244;2023-07-31T09:58:12;19.40;99.90
22813;DHT22;11573;51.334;3.244;2023-07-31T10:00:40;19.50;99.90
22813;DHT22;11573;51.334;3.244;2023-07-31T10:03:09;19.40;99.90
22813;DHT22;11573;51.334;3.244;2023-07-31T10:05:45;19.30;99.90
22813;DHT22;11573;51.334;3.244;2023-07-31T10:08:14;19.30;99.90
22813;DHT22;11573;51.334;3.244;2023-07-31T10:10:44;19.40;99.90
22813;DHT22;11573;51.334;3.244;2023-07-31T10:13:12;19.50;99.90
22813;DHT22;11573;51.334;3.244;2023-07-31T10:15:39;19.40;99.90
22813;DHT22;11573;51.334;3.244;2023-07-31T10:18:08;19.10;99.90
22813;DHT22;11573;51.334;3.244;2023-07-31T10:20:35;19.20;99.90
22813;DHT22;11573;51.334;3.244;2023-07-31T10:23:03;19.20;99.90
22813;DHT22;11573;51.334;3.244;2023-07-31T10:25:32;19.20;99.90
22813;DHT22;11573;51.334;3.244;2023-07-31T10:27:59;19.10;99.90
22813;DHT22;11573;51.334;3.244;2023-07-31T10:30:29;19.10;99.90
22813;DHT22;11573;51.334;3.244;2023-07-31T10:32:57;19.40;99.90
22813;DHT22;11573;51.334;3.244;2023-07-31T10:35:25;19.30;99.90
22813;DHT22;11573;51.334;3.244;2023-07-31T10:37:52;19.30;99.90
22813;DHT22;11573;51.334;3.244;2023-07-31T10:40:24;19.50;99.90
22813;DHT22;11573;51.334;3.244;2023-07-31T10:42:55;19.70;99.90
22813;DHT22;11573;51.334;3.244;2023-07-31T10:45:42;19.60;99.90
22813;DHT22;11573;51.334;3.244;2023-07-31T10:48:13;19.70;99.90
22813;DHT22;11573;51.334;3.244;2023-07-31T10:50:49;20.00;99.90
22813;DHT22;11573;51.334;3.244;2023-07-31T10:53:30;20.20;99.90
22813;DHT22;11573;51.334;3.244;2023-07-31T10:55:59;20.20;99.90
22813;DHT22;11573;51.334;3.244;2023-07-31T10:58:26;20.50;99.90
22813;DHT22;11573;51.334;3.244;2023-07-31T11:00:58;20.60;99.90
22813;DHT22;11573;51.334;3.244;2023-07-31T11:03:27;20.80;99.90
22813;DHT22;11573;51.334;3.244;2023-07-31T11:06:07;20.80;99.90
22813;DHT22;11573;51.334;3.244;2023-07-31T11:08:38;20.60;99.90
22813;DHT22;11573;51.334;3.244;2023-07-31T11:11:09;20.40;99.90
22813;DHT22;11573;51.334;3.244;2023-07-31T11:13:46;20.20;99.90
22813;DHT22;11573;51.334;3.244;2023-07-31T11:16:17;20.10;99.90
22813;DHT22;11573;51.334;3.244;2023-07-31T11:18:46;20.00;99.90
22813;DHT22;11573;51.334;3.244;2023-07-31T11:21:19;20.00;99.90
22813;DHT22;11573;51.334;3.244;2023-07-31T11:23:56;20.10;99.90
22813;DHT22;11573;51.334;3.244;2023-07-31T11:26:27;20.30;99.90
22813;DHT22;11573;51.334;3.244;2023-07-31T11:28:54;20.40;99.90
22813;DHT22;11573;51.334;3.244;2023-07-31T11:31:22;20.30;99.90
22813;DHT22;11573;51.334;3.244;2023-07-31T11:33:49;20.60;99.90
22813;DHT22;11573;51.334;3.244;2023-07-31T11:36:19;20.70;99.90
22813;DHT22;11573;51.334;3.244;2023-07-31T11:38:47;20.70;99.90
22813;DHT22;11573;51.334;3.244;2023-07-31T11:41:16;20.60;99.90
22813;DHT22;11573;51.334;3.244;2023-07-31T11:43:47;20.40;99.90
22813;DHT22;11573;51.334;3.244;2023-07-31T11:46:14;20.40;99.90
22813;DHT22;11573;51.334;3.244;2023-07-31T11:48:42;20.50;99.90
22813;DHT22;11573;51.334;3.244;2023-07-31T11:51:12;20.80;99.90
22813;DHT22;11573;51.334;3.244;2023-07-31T11:53:41;20.70;99.90
22813;DHT22;11573;51.334;3.244;2023-07-31T11:56:12;20.40;99.90
22813;DHT22;11573;51.334;3.244;2023-07-31T11:58:40;20.20;99.90
22813;DHT22;11573;51.334;3.244;2023-07-31T12:01:08;20.20;99.90
22813;DHT22;11573;51.334;3.244;2023-07-31T12:03:36;20.20;99.90
22813;DHT22;11573;51.334;3.244;2023-07-31T12:06:03;20.10;99.90
22813;DHT22;11573;51.334;3.244;2023-07-31T12:08:30;19.80;99.90
22813;DHT22;11573;51.334;3.244;2023-07-31T12:11:03;19.70;99.90
22813;DHT22;11573;51.334;3.244;2023-07-31T12:13:32;19.60;99.90
22813;DHT22;11573;51.334;3.244;2023-07-31T12:16:03;19.40;99.90
22813;DHT22;11573;51.334;3.244;2023-07-31T12:18:35;19.30;99.90
22813;DHT22;11573;51.334;3.244;2023-07-31T12:21:05;19.20;99.90
22813;DHT22;11573;51.334;3.244;2023-07-31T12:23:34;19.20;99.90
22813;DHT22;11573;51.334;3.244;2023-07-31T12:26:09;19.10;99.90
22813;DHT22;11573;51.334;3.244;2023-07-31T12:31:12;19.30;99.90
22813;DHT22;11573;51.334;3.244;2023-07-31T12:33:41;19.20;99.90
22813;DHT22;11573;51.334;3.244;2023-07-31T12:36:11;19.40;99.90
22813;DHT22;11573;51.334;3.244;2023-07-31T12:38:39;19.40;99.90
22813;DHT22;11573;51.334;3.244;2023-07-31T12:41:06;19.40;99.90
22813;DHT22;11573;51.334;3.244;2023-07-31T12:43:34;19.60;99.90
22813;DHT22;11573;51.334;3.244;2023-07-31T12:46:02;19.70;99.90
22813;DHT22;11573;51.334;3.244;2023-07-31T12:48:29;19.90;99.90
22813;DHT22;11573;51.334;3.244;2023-07-31T12:50:56;19.90;99.90
22813;DHT22;11573;51.334;3.244;2023-07-31T12:53:23;19.70;99.90
22813;DHT22;11573;51.334;3.244;2023-07-31T12:55:50;19.60;99.90
22813;DHT22;11573;51.334;3.244;2023-07-31T12:58:17;19.50;99.90
22813;DHT22;11573;51.334;3.244;2023-07-31T13:00:44;19.30;99.90
22813;DHT22;11573;51.334;3.244;2023-07-31T13:03:11;19.30;99.90
22813;DHT22;11573;51.334;3.244;2023-07-31T13:05:38;19.30;99.90
22813;DHT22;11573;51.334;3.244;2023-07-31T13:08:05;19.30;99.90
22813;DHT22;11573;51.334;3.244;2023-07-31T13:10:32;19.30;99.90
22813;DHT22;11573;51.334;3.244;2023-07-31T13:12:59;19.20;99.90
22813;DHT22;11573;51.334;3.244;2023-07-31T13:15:26;19.20;99.90
22813;DHT22;11573;51.334;3.244;2023-07-31T13:17:53;19.20;99.90
22813;DHT22;11573;51.334;3.244;2023-07-31T13:20:20;19.20;99.90
22813;DHT22;11573;51.334;3.244;2023-07-31T13:22:48;19.10;99.90
22813;DHT22;11573;51.334;3.244;2023-07-31T13:25:14;19.10;99.90
22813;DHT22;11573;51.334;3.244;2023-07-31T13:27:41;19.10;99.90
22813;DHT22;11573;51.334;3.244;2023-07-31T13:30:09;19.10;99.90
22813;DHT22;11573;51.334;3.244;2023-07-31T13:32:36;19.10;99.90
22813;DHT22;11573;51.334;3.244;2023-07-31T13:35:09;19.30;99.90
22813;DHT22;11573;51.334;3.244;2023-07-31T13:37:38;19.30;99.90
22813;DHT22;11573;51.334;3.244;2023-07-31T13:40:06;19.20;99.90
22813;DHT22;11573;51.334;3.244;2023-07-31T13:42:33;19.30;99.90
22813;DHT22;11573;51.334;3.244;2023-07-31T13:45:00;19.50;99.90
22813;DHT22;11573;51.334;3.244;2023-07-31T13:47:29;19.40;99.90
22813;DHT22;11573;51.334;3.244;2023-07-31T13:49:56;19.40;99.90
22813;DHT22;11573;51.334;3.244;2023-07-31T13:52:23;19.30;99.90
22813;DHT22;11573;51.334;3.244;2023-07-31T13:54:50;19.30;99.90
22813;DHT22;11573;51.334;3.244;2023-07-31T13:57:17;19.20;99.90
22813;DHT22;11573;51.334;3.244;2023-07-31T13:59:44;19.10;99.90
22813;DHT22;11573;51.334;3.244;2023-07-31T14:02:10;19.10;99.90
22813;DHT22;11573;51.334;3.244;2023-07-31T14:04:37;19.10;99.90
22813;DHT22;11573;51.334;3.244;2023-07-31T14:07:04;19.00;99.90
22813;DHT22;11573;51.334;3.244;2023-07-31T14:09:31;18.90;99.90
22813;DHT22;11573;51.334;3.244;2023-07-31T14:11:58;18.80;99.90
22813;DHT22;11573;51.334;3.244;2023-07-31T14:14:25;18.80;99.90
22813;DHT22;11573;51.334;3.244;2023-07-31T14:16:52;18.80;99.90
22813;DHT22;11573;51.334;3.244;2023-07-31T14:19:19;18.90;99.90
22813;DHT22;11573;51.334;3.244;2023-07-31T14:21:47;18.90;99.90
22813;DHT22;11573;51.334;3.244;2023-07-31T14:24:31;18.90;99.90
22813;DHT22;11573;51.334;3.244;2023-07-31T14:26:58;18.90;99.90
22813;DHT22;11573;51.334;3.244;2023-07-31T14:29:25;18.90;99.90
22813;DHT22;11573;51.334;3.244;2023-07-31T14:31:52;18.90;99.90
22813;DHT22;11573;51.334;3.244;2023-07-31T14:34:19;18.90;99.90
22813;DHT22;11573;51.334;3.244;2023-07-31T14:36:46;19.00;99.90
22813;DHT22;11573;51.334;3.244;2023-07-31T14:39:13;18.90;99.90
22813;DHT22;11573;51.334;3.244;2023-07-31T14:41:40;18.90;99.90
22813;DHT22;11573;51.334;3.244;2023-07-31T14:44:07;18.80;99.90
22813;DHT22;11573;51.334;3.244;2023-07-31T14:46:34;18.90;99.90
22813;DHT22;11573;51.334;3.244;2023-07-31T14:49:01;18.90;99.90
22813;DHT22;11573;51.334;3.244;2023-07-31T14:51:28;18.80;99.90
22813;DHT22;11573;51.334;3.244;2023-07-31T14:53:56;18.80;99.90
22813;DHT22;11573;51.334;3.244;2023-07-31T14:56:23;18.80;99.90
22813;DHT22;11573;51.334;3.244;2023-07-31T14:58:50;18.90;99.90
22813;DHT22;11573;51.334;3.244;2023-07-31T15:01:17;18.80;99.90
22813;DHT22;11573;51.334;3.244;2023-07-31T15:03:44;18.80;99.90
22813;DHT22;11573;51.334;3.244;2023-07-31T15:06:11;18.80;99.90
22813;DHT22;11573;51.334;3.244;2023-07-31T15:08:39;18.80;99.90
22813;DHT22;11573;51.334;3.244;2023-07-31T15:11:09;18.80;99.90
22813;DHT22;11573;51.334;3.244;2023-07-31T15:13:37;18.80;99.90
22813;DHT22;11573;51.334;3.244;2023-07-31T15:16:04;18.80;99.90
22813;DHT22;11573;51.334;3.244;2023-07-31T15:18:31;18.80;99.90
22813;DHT22;11573;51.334;3.244;2023-07-31T15:20:58;18.90;99.90
22813;DHT22;11573;51.334;3.244;2023-07-31T15:23:25;19.00;99.90
22813;DHT22;11573;51.334;3.244;2023-07-31T15:25:53;19.00;99.90
22813;DHT22;11573;51.334;3.244;2023-07-31T15:28:20;19.10;99.90
22813;DHT22;11573;51.334;3.244;2023-07-31T15:30:47;19.00;99.90
22813;DHT22;11573;51.334;3.244;2023-07-31T15:33:15;19.00;99.90
22813;DHT22;11573;51.334;3.244;2023-07-31T15:35:42;19.00;99.90
22813;DHT22;11573;51.334;3.244;2023-07-31T15:38:10;19.00;99.90
22813;DHT22;11573;51.334;3.244;2023-07-31T15:40:38;19.00;99.90
22813;DHT22;11573;51.334;3.244;2023-07-31T15:43:05;19.10;99.90
22813;DHT22;11573;51.334;3.244;2023-07-31T15:45:32;19.10;99.90